Southside, Alabama
Current Conditions -  °F | °C
As of 4:55 PM on Wednesday 22 Oct 2014 (Local Time) from KGAD Reporting Station
Clear Clear  
Wind Chill: 66°   Ceiling: Unl
Heat Index: 66°   Visibility: 10mi
Dew Point: 37°   Wind: 9mph
Humidity: 35%   Direction: 360°N
Pressure: 30.11"   Gusts: NA
Location:  33.8947°N, 86.0122°W
Report Text: KGAD 222155Z 36008KT 10SM CLR 19/03 A3011 RMK AO1
Loading
Personal Weather Stations






























Interactive Weather Map
Tropical Storm Tracking
New forecast layout! Learn more

10-Day Weather Forecast

Advertisements
Track Severe Weather on mobile